createdAt,value
2022-09-05T00:00:14.861Z,1.75
2022-09-05T00:02:48.733Z,1.60
2022-09-05T00:05:24.061Z,1.90
2022-09-05T00:07:59.375Z,1.75
2022-09-05T00:11:40.414Z,1.77
2022-09-05T00:13:37.224Z,1.83
2022-09-05T00:16:15.741Z,1.88
2022-09-05T00:24:17.162Z,1.83
2022-09-05T00:24:30.624Z,1.70
2022-09-05T00:25:30.664Z,1.67
2022-09-05T00:28:03.428Z,1.40
2022-09-05T00:31:54.634Z,1.80
2022-09-05T00:34:47.282Z,1.58
2022-09-05T00:37:27.991Z,1.70
2022-09-05T00:40:09.674Z,1.85
2022-09-05T00:42:45.590Z,1.90
2022-09-05T00:45:19.527Z,1.60
2022-09-05T00:47:57.979Z,1.50
2022-09-05T00:50:37.807Z,1.73
2022-09-05T00:53:17.566Z,1.60
2022-09-05T00:55:53.135Z,1.60
2022-09-05T00:58:33.899Z,2.00
2022-09-05T01:01:20.526Z,1.80
2022-09-05T01:04:06.618Z,1.67
2022-09-05T01:06:43.712Z,1.60
2022-09-05T01:09:32.826Z,1.63
2022-09-05T01:12:04.887Z,1.48
2022-09-05T01:14:52.682Z,1.73
2022-09-05T01:17:39.536Z,1.92
2022-09-05T01:20:38.093Z,1.55
2022-09-05T01:23:49.067Z,2.00
2022-09-05T01:26:20.060Z,1.67
2022-09-05T01:29:16.801Z,1.67
2022-09-05T01:32:09.217Z,1.33
2022-09-05T01:35:01.208Z,1.67
2022-09-05T01:37:50.856Z,1.70
2022-09-05T01:40:20.565Z,1.90
2022-09-05T01:43:10.686Z,1.90
2022-09-05T01:45:46.851Z,1.63
2022-09-05T01:48:31.976Z,1.83
2022-09-05T01:51:33.105Z,1.85
2022-09-05T01:54:56.646Z,1.95
2022-09-05T01:57:41.542Z,1.67
2022-09-05T02:00:12.494Z,1.70
2022-09-05T02:03:01.480Z,1.60
2022-09-05T02:05:50.999Z,1.75
2022-09-05T02:08:34.616Z,2.05
2022-09-05T02:11:09.130Z,1.90
2022-09-05T02:13:35.571Z,1.55
2022-09-05T02:16:28.893Z,1.63
2022-09-05T02:19:10.395Z,2.10
2022-09-05T02:22:01.238Z,1.67
2022-09-05T02:24:35.784Z,1.70
2022-09-05T02:27:31.772Z,1.90
2022-09-05T02:30:14.689Z,1.70
2022-09-05T02:32:56.367Z,1.75
2022-09-05T02:36:10.874Z,2.00
2022-09-05T02:42:43.473Z,2.03
2022-09-05T02:45:14.208Z,2.00
2022-09-05T02:45:25.876Z,1.80
2022-09-05T02:48:22.706Z,1.90
2022-09-05T02:55:22.281Z,1.42
2022-09-05T02:57:39.949Z,1.75
2022-09-05T02:57:41.943Z,2.10
2022-09-05T03:00:01.609Z,2.10
2022-09-05T03:02:37.036Z,1.90
2022-09-05T03:05:38.727Z,1.67
2022-09-05T03:08:40.916Z,1.58
2022-09-05T03:11:22.262Z,1.77
2022-09-05T03:14:30.328Z,1.80
2022-09-05T03:17:05.606Z,2.03
2022-09-05T03:20:15.261Z,2.00
2022-09-05T03:23:15.945Z,2.15
2022-09-05T03:26:06.802Z,2.00
2022-09-05T03:28:57.550Z,1.90
2022-09-05T03:31:56.884Z,1.83
2022-09-05T03:34:35.372Z,1.88
2022-09-05T03:37:32.899Z,1.77
2022-09-05T03:40:21.782Z,2.08
2022-09-05T03:42:55.811Z,1.83
2022-09-05T03:45:48.142Z,2.08
2022-09-05T03:48:37.896Z,1.98
2022-09-05T03:57:04.493Z,1.85
2022-09-05T03:57:12.922Z,2.05
2022-09-05T03:58:11.920Z,1.90
2022-09-05T04:02:46.432Z,2.00
2022-09-05T04:08:19.251Z,2.30
2022-09-05T04:09:51.091Z,2.20
2022-09-05T04:12:31.349Z,2.50
2022-09-05T04:15:06.101Z,2.40
2022-09-05T04:17:52.347Z,2.20
2022-09-05T04:20:42.770Z,2.50
2022-09-05T04:23:12.096Z,2.20
2022-09-05T04:26:16.365Z,2.40
2022-09-05T04:28:53.564Z,2.20
2022-09-05T04:31:34.342Z,2.03
2022-09-05T04:34:10.101Z,2.22
2022-09-05T04:36:38.300Z,2.53
2022-09-05T04:39:25.362Z,2.53
2022-09-05T04:42:16.282Z,2.28
2022-09-05T04:44:50.476Z,2.22
2022-09-05T04:47:31.638Z,2.17
2022-09-05T04:50:08.077Z,2.55
2022-09-05T04:53:15.599Z,2.40
2022-09-05T04:55:51.789Z,2.67
2022-09-05T04:59:18.749Z,3.05
2022-09-05T05:06:13.106Z,2.42
2022-09-05T05:06:15.110Z,2.30
2022-09-05T05:07:19.869Z,2.47
2022-09-05T05:09:51.630Z,2.60
2022-09-05T05:18:14.830Z,2.42
2022-09-05T05:18:15.463Z,2.28
2022-09-05T05:19:03.042Z,2.28
2022-09-05T05:21:31.510Z,2.50
2022-09-05T05:24:08.170Z,2.70
2022-09-05T05:27:02.692Z,2.50
2022-09-05T05:30:00.750Z,2.60
2022-09-05T05:32:45.173Z,2.47
2022-09-05T05:35:16.705Z,2.58
2022-09-05T05:37:47.687Z,2.40
2022-09-05T05:40:17.028Z,2.47
2022-09-05T05:42:44.866Z,2.90
2022-09-05T05:45:32.492Z,2.40
2022-09-05T05:48:05.805Z,2.78
2022-09-05T05:50:59.041Z,2.65
2022-09-05T05:53:52.474Z,3.10
2022-09-05T05:56:47.276Z,2.80
2022-09-05T05:59:33.096Z,2.42
2022-09-05T06:02:02.151Z,2.70
2022-09-05T06:04:55.267Z,2.83
2022-09-05T06:11:06.010Z,3.13
2022-09-05T06:14:59.034Z,3.17
2022-09-05T06:15:04.036Z,2.83
2022-09-05T06:17:19.962Z,2.88
2022-09-05T06:22:07.165Z,2.60
2022-09-05T06:23:38.615Z,3.15
2022-09-05T06:26:40.951Z,3.05
2022-09-05T06:29:47.216Z,2.95
2022-09-05T06:32:25.473Z,2.60
2022-09-05T06:35:13.781Z,2.75
2022-09-05T06:37:58.455Z,2.90
2022-09-05T06:40:27.134Z,2.70
2022-09-05T06:43:31.770Z,3.03
2022-09-05T06:46:40.879Z,3.15
2022-09-05T06:49:32.404Z,3.17
2022-09-05T06:52:28.627Z,2.80
2022-09-05T06:55:21.183Z,2.75
2022-09-05T06:58:18.952Z,3.03
2022-09-05T07:01:08.922Z,3.13
2022-09-05T07:04:31.931Z,3.60
2022-09-05T07:07:01.598Z,3.20
2022-09-05T07:09:51.159Z,3.55
2022-09-05T07:12:30.290Z,3.03
2022-09-05T07:15:31.187Z,2.72
2022-09-05T07:18:11.264Z,3.25
2022-09-05T07:21:17.136Z,3.22
2022-09-05T07:24:06.604Z,3.65
2022-09-05T07:26:54.097Z,2.92
2022-09-05T07:29:32.000Z,3.35
2022-09-05T07:31:59.645Z,3.08
2022-09-05T07:34:32.988Z,3.00
2022-09-05T07:37:15.331Z,2.72
2022-09-05T07:40:12.966Z,3.38
2022-09-05T07:43:11.522Z,3.33
2022-09-05T07:45:55.381Z,3.15
2022-09-05T07:48:29.738Z,3.50
2022-09-05T07:55:12.383Z,3.30
2022-09-05T07:56:49.150Z,3.20
2022-09-05T07:57:15.445Z,3.25
2022-09-05T07:59:28.676Z,3.17
2022-09-05T08:01:55.301Z,3.17
2022-09-05T08:04:34.957Z,2.90
2022-09-05T08:07:50.008Z,3.10
2022-09-05T08:10:30.929Z,2.88
2022-09-05T08:13:24.500Z,2.95
2022-09-05T08:16:04.311Z,3.17
2022-09-05T08:18:46.361Z,2.90
2022-09-05T08:21:39.912Z,3.00
2022-09-05T08:24:13.884Z,2.83
2022-09-05T08:26:47.108Z,3.05
2022-09-05T08:29:17.679Z,2.90
2022-09-05T08:31:52.588Z,2.80
2022-09-05T08:34:31.397Z,2.75
2022-09-05T08:37:21.425Z,2.80
2022-09-05T08:40:10.925Z,3.25
2022-09-05T08:46:36.615Z,2.70
2022-09-05T08:46:47.738Z,3.00
2022-09-05T08:48:55.640Z,2.83
2022-09-05T08:51:46.121Z,2.92
2022-09-05T08:54:37.387Z,2.90
2022-09-05T08:57:18.517Z,2.95
2022-09-05T09:00:19.681Z,2.95
2022-09-05T09:03:12.388Z,2.78
2022-09-05T09:06:13.710Z,3.20
2022-09-05T09:08:47.400Z,3.10
2022-09-05T09:11:30.907Z,2.80
2022-09-05T09:14:30.411Z,3.55
2022-09-05T09:17:00.446Z,2.70
2022-09-05T09:19:48.594Z,3.00
2022-09-05T09:22:36.969Z,3.13
2022-09-05T09:25:14.993Z,3.38
2022-09-05T09:28:47.172Z,3.22
2022-09-05T09:31:09.978Z,3.00
2022-09-05T09:34:02.841Z,3.05
2022-09-05T09:36:41.452Z,2.65
2022-09-05T09:39:38.633Z,2.90
2022-09-05T09:42:32.170Z,2.60
2022-09-05T09:45:31.355Z,2.90
2022-09-05T09:48:14.388Z,2.72
2022-09-05T09:50:58.751Z,2.97
2022-09-05T09:54:04.091Z,2.80
2022-09-05T09:59:31.886Z,2.58
2022-09-05T10:03:09.660Z,3.00
2022-09-05T10:10:38.413Z,2.78
2022-09-05T10:10:48.844Z,3.17
2022-09-05T10:11:55.636Z,2.90
2022-09-05T10:14:50.731Z,2.70
2022-09-05T10:17:36.293Z,2.58
2022-09-05T10:20:32.045Z,2.30
2022-09-05T10:23:28.210Z,2.92
2022-09-05T10:26:24.676Z,2.45
2022-09-05T10:29:26.698Z,2.50
2022-09-05T10:34:38.084Z,2.60
2022-09-05T10:35:22.148Z,2.60
2022-09-05T10:38:14.110Z,2.85
2022-09-05T10:40:45.409Z,2.72
2022-09-05T10:43:31.562Z,3.03
2022-09-05T10:45:58.113Z,2.92
2022-09-05T10:48:38.298Z,2.63
2022-09-05T10:51:26.904Z,2.40
2022-09-05T10:54:23.869Z,2.88
2022-09-05T10:56:59.300Z,2.65
2022-09-05T11:02:20.876Z,2.53
2022-09-05T11:02:33.456Z,2.50
2022-09-05T11:05:25.708Z,2.53
2022-09-05T11:08:05.474Z,2.55
2022-09-05T11:10:44.703Z,2.50
2022-09-05T11:13:35.894Z,2.63
2022-09-05T11:16:13.461Z,2.75
2022-09-05T11:18:57.296Z,2.90
2022-09-05T11:21:32.113Z,2.45
2022-09-05T11:24:04.395Z,2.50
2022-09-05T11:26:35.660Z,2.47
2022-09-05T11:29:07.050Z,2.65
2022-09-05T11:32:11.780Z,2.45
2022-09-05T11:39:50.889Z,2.88
2022-09-05T11:40:07.553Z,2.67
2022-09-05T11:41:02.705Z,2.55
2022-09-05T11:43:51.796Z,2.97
2022-09-05T11:46:53.178Z,2.70
2022-09-05T11:49:42.278Z,2.78
2022-09-05T11:52:40.281Z,2.70
2022-09-05T11:55:26.959Z,2.60
2022-09-05T11:58:43.842Z,2.78
2022-09-05T12:01:43.127Z,2.60
2022-09-05T12:04:29.383Z,2.55
2022-09-05T12:07:31.829Z,2.60
2022-09-05T12:10:43.500Z,2.42
2022-09-05T12:13:26.508Z,2.72
2022-09-05T12:16:07.812Z,2.63
2022-09-05T12:18:42.478Z,2.47
2022-09-05T12:21:47.817Z,2.63
2022-09-05T12:25:16.809Z,2.92
2022-09-05T12:30:00.583Z,2.67
2022-09-05T12:33:56.696Z,2.65
2022-09-05T12:36:03.651Z,2.70
2022-09-05T12:41:32.940Z,2.63
2022-09-05T12:41:41.715Z,2.63
2022-09-05T12:42:11.535Z,2.80
2022-09-05T12:45:09.047Z,2.65
2022-09-05T12:48:08.707Z,2.50
2022-09-05T12:50:59.673Z,2.63
2022-09-05T12:53:35.157Z,2.80
2022-09-05T12:57:06.525Z,3.00
2022-09-05T13:02:55.635Z,2.65
2022-09-05T13:03:12.276Z,2.60
2022-09-05T13:04:41.717Z,2.38
2022-09-05T13:07:42.798Z,2.70
2022-09-05T13:13:27.439Z,2.65
2022-09-05T13:14:56.585Z,2.85
2022-09-05T13:16:03.356Z,2.70
2022-09-05T13:18:39.081Z,3.03
2022-09-05T13:21:27.055Z,2.72
2022-09-05T13:24:11.956Z,2.92
2022-09-05T13:26:43.079Z,2.90
2022-09-05T13:29:15.414Z,3.40
2022-09-05T13:38:07.998Z,3.15
2022-09-05T13:38:14.182Z,3.00
2022-09-05T13:38:16.015Z,2.78
2022-09-05T13:40:23.881Z,3.15
2022-09-05T13:43:21.714Z,3.60
2022-09-05T13:46:17.058Z,3.70
2022-09-05T13:54:36.479Z,3.33
2022-09-05T13:57:16.324Z,3.17
2022-09-05T14:00:06.841Z,2.92
2022-09-05T14:06:45.137Z,2.95
2022-09-05T14:09:37.967Z,3.85
2022-09-05T14:12:37.266Z,3.47
2022-09-05T14:15:35.778Z,3.55
2022-09-05T14:18:18.525Z,3.45
2022-09-05T14:21:17.810Z,3.75
2022-09-05T14:23:58.280Z,2.95
2022-09-05T14:26:29.102Z,3.10
2022-09-05T14:29:05.967Z,3.30
2022-09-05T14:37:48.280Z,3.25
2022-09-05T14:37:55.417Z,2.95
2022-09-05T14:38:09.469Z,3.55
2022-09-05T14:41:09.442Z,2.95
2022-09-05T14:44:13.458Z,3.75
2022-09-05T14:47:06.150Z,3.05
2022-09-05T14:49:45.562Z,3.13
2022-09-05T14:52:24.420Z,2.95
2022-09-05T15:02:42.810Z,3.08
2022-09-05T15:02:57.902Z,3.03
2022-09-05T15:06:35.561Z,3.08
2022-09-05T15:11:25.521Z,3.17
2022-09-05T15:11:52.281Z,3.17
2022-09-05T15:14:41.527Z,3.35
2022-09-05T15:17:08.031Z,2.83
2022-09-05T15:20:06.865Z,3.10
2022-09-05T15:22:36.583Z,3.17
2022-09-05T15:25:16.656Z,3.10
2022-09-05T15:27:45.099Z,3.00
2022-09-05T15:30:35.870Z,2.97
2022-09-05T15:33:25.650Z,2.78
2022-09-05T15:35:53.013Z,3.50
2022-09-05T15:38:22.527Z,2.90
2022-09-05T15:41:21.043Z,2.83
2022-09-05T15:44:14.802Z,3.00
2022-09-05T15:47:03.283Z,2.50
2022-09-05T15:49:38.051Z,2.80
2022-09-05T15:52:16.471Z,3.13
2022-09-05T15:54:49.803Z,3.10
2022-09-05T15:57:21.280Z,2.70
2022-09-05T15:59:52.960Z,2.65
2022-09-05T16:02:25.985Z,2.83
2022-09-05T16:10:27.569Z,2.60
2022-09-05T16:10:38.258Z,3.13
2022-09-05T16:11:04.465Z,2.80
2022-09-05T16:13:46.327Z,3.05
2022-09-05T16:23:19.046Z,2.60
2022-09-05T16:23:23.941Z,2.45
2022-09-05T16:23:26.781Z,2.72
2022-09-05T16:25:00.184Z,2.83
2022-09-05T16:28:03.793Z,2.65
2022-09-05T16:30:34.896Z,2.28
2022-09-05T16:33:24.219Z,2.47
2022-09-05T16:36:01.757Z,2.17
2022-09-05T16:38:49.164Z,2.40
2022-09-05T16:41:26.846Z,2.60
2022-09-05T16:43:56.980Z,2.42
2022-09-05T16:47:03.885Z,2.28
2022-09-05T16:49:42.484Z,2.70
2022-09-05T16:52:13.510Z,1.90
2022-09-05T16:55:29.219Z,2.55
2022-09-05T16:58:14.490Z,2.00
2022-09-05T17:00:48.172Z,2.00
2022-09-05T17:06:05.519Z,1.90
2022-09-05T17:08:33.192Z,2.50
2022-09-05T17:11:03.579Z,1.80
2022-09-05T17:13:52.794Z,2.08
2022-09-05T17:16:28.138Z,1.70
2022-09-05T17:18:59.407Z,1.80
2022-09-05T17:22:35.829Z,1.60
2022-09-05T17:29:19.512Z,1.70
2022-09-05T17:29:34.136Z,1.73
2022-09-05T17:32:53.499Z,1.50
2022-09-05T17:35:42.124Z,1.58
2022-09-05T17:38:30.123Z,1.90
2022-09-05T17:41:24.825Z,1.83
2022-09-05T17:43:58.485Z,1.50
2022-09-05T17:49:18.846Z,1.52
2022-09-05T17:51:50.988Z,1.55
2022-09-05T17:54:26.503Z,1.50
2022-09-05T17:56:53.361Z,2.20
2022-09-05T17:59:19.804Z,1.50
2022-09-05T18:02:04.652Z,1.58
2022-09-05T18:04:43.085Z,1.33
2022-09-05T18:07:31.010Z,1.40
2022-09-05T18:10:15.377Z,1.55
2022-09-05T18:15:35.729Z,1.20
2022-09-05T18:18:05.314Z,1.48
2022-09-05T18:20:43.518Z,1.35
2022-09-05T18:23:39.105Z,1.40
2022-09-05T18:26:24.472Z,1.27
2022-09-05T18:29:01.331Z,1.20
2022-09-05T18:31:41.839Z,1.45
2022-09-05T18:34:15.666Z,1.50
2022-09-05T18:36:53.694Z,1.33
2022-09-05T18:39:25.535Z,1.27
2022-09-05T18:42:33.296Z,1.35
2022-09-05T18:44:59.764Z,1.20
2022-09-05T18:47:33.213Z,1.40
2022-09-05T18:50:24.988Z,1.50
2022-09-05T18:52:50.261Z,1.30
2022-09-05T18:56:14.248Z,1.40
2022-09-05T18:58:26.583Z,1.73
2022-09-05T19:00:53.987Z,1.35
2022-09-05T19:03:25.242Z,1.48
2022-09-05T19:05:55.549Z,1.55
2022-09-05T19:09:06.851Z,1.50
2022-09-05T19:11:38.208Z,1.10
2022-09-05T19:14:38.588Z,1.25
2022-09-05T19:17:15.085Z,1.40
2022-09-05T19:20:33.051Z,1.60
2022-09-05T19:23:11.003Z,1.30
2022-09-05T19:25:45.081Z,1.20
2022-09-05T19:36:50.636Z,1.50
2022-09-05T19:36:52.295Z,1.58
2022-09-05T19:36:54.023Z,1.45
2022-09-05T19:42:04.580Z,1.63
2022-09-05T19:47:34.472Z,1.58
2022-09-05T19:47:44.913Z,1.27
2022-09-05T19:50:54.779Z,1.52
2022-09-05T19:53:21.839Z,1.35
2022-09-05T19:55:49.714Z,1.30
2022-09-05T19:58:20.809Z,1.35
2022-09-05T20:01:01.438Z,1.33
2022-09-05T20:03:28.775Z,1.50
2022-09-05T20:06:05.336Z,1.10
2022-09-05T20:08:35.155Z,1.40
2022-09-05T20:11:03.919Z,1.33
2022-09-05T20:13:30.986Z,1.40
2022-09-05T20:15:57.529Z,0.95
2022-09-05T20:18:44.197Z,1.20
2022-09-05T20:21:28.535Z,1.20
2022-09-05T20:23:56.461Z,1.40
2022-09-05T20:26:28.531Z,1.23
2022-09-05T20:29:01.259Z,1.45
2022-09-05T20:31:32.962Z,1.10
2022-09-05T20:34:03.539Z,1.30
2022-09-05T20:41:11.613Z,1.45
2022-09-05T20:43:16.383Z,1.27
2022-09-05T20:43:30.343Z,1.30
2022-09-05T20:45:44.444Z,1.45
2022-09-05T20:54:07.013Z,0.98
2022-09-05T20:54:12.793Z,1.30
2022-09-05T20:54:17.369Z,1.85
2022-09-05T20:56:48.203Z,1.20
2022-09-05T20:59:36.187Z,1.17
2022-09-05T21:02:30.007Z,0.90
2022-09-05T21:05:21.280Z,1.30
2022-09-05T21:08:07.623Z,1.42
2022-09-05T21:10:55.569Z,1.10
2022-09-05T21:13:52.232Z,1.48
2022-09-05T21:16:22.193Z,1.02
2022-09-05T21:18:50.710Z,1.00
2022-09-05T21:21:30.224Z,0.98
2022-09-05T21:24:17.978Z,1.38
2022-09-05T21:26:49.158Z,1.20
2022-09-05T21:29:22.677Z,1.20
2022-09-05T21:31:54.331Z,0.90
2022-09-05T21:34:25.406Z,1.13
2022-09-05T21:37:03.916Z,1.40
2022-09-05T21:39:36.843Z,1.13
2022-09-05T21:42:59.853Z,1.00
2022-09-05T21:47:38.805Z,1.35
2022-09-05T21:47:52.531Z,1.10
2022-09-05T21:50:30.654Z,1.00
2022-09-05T21:54:54.693Z,1.38
2022-09-05T21:59:22.459Z,1.27
2022-09-05T21:59:36.926Z,1.20
2022-09-05T22:01:48.890Z,1.17
2022-09-05T22:04:13.673Z,1.42
2022-09-05T22:06:40.270Z,1.20
2022-09-05T22:09:13.103Z,0.98
2022-09-05T22:11:40.624Z,1.27
2022-09-05T22:14:08.940Z,1.10
2022-09-05T22:16:38.452Z,1.10
2022-09-05T22:19:22.326Z,1.20
2022-09-05T22:21:54.516Z,1.33
2022-09-05T22:24:21.671Z,1.02
2022-09-05T22:27:11.325Z,1.20
2022-09-05T22:29:39.957Z,1.20
2022-09-05T22:32:07.030Z,1.02
2022-09-05T22:34:33.567Z,1.17
2022-09-05T22:37:00.312Z,1.10
2022-09-05T22:39:36.570Z,1.40
2022-09-05T22:42:10.035Z,1.20
2022-09-05T22:44:37.046Z,1.10
2022-09-05T22:47:05.539Z,1.25
2022-09-05T22:49:32.162Z,1.33
2022-09-05T22:51:58.663Z,0.90
2022-09-05T22:54:25.169Z,1.67
2022-09-05T22:56:51.747Z,1.08
2022-09-05T22:59:18.235Z,1.10
2022-09-05T23:01:44.813Z,1.20
2022-09-05T23:04:11.420Z,1.13
2022-09-05T23:06:38.232Z,0.93
2022-09-05T23:09:04.748Z,1.10
2022-09-05T23:11:31.272Z,1.23
2022-09-05T23:13:57.775Z,1.20
2022-09-05T23:16:24.346Z,1.23
2022-09-05T23:18:50.833Z,1.33
2022-09-05T23:21:17.399Z,1.27
2022-09-05T23:23:43.988Z,1.25
2022-09-05T23:26:12.091Z,1.45
2022-09-05T23:28:43.071Z,1.35
2022-09-05T23:31:11.342Z,1.20
2022-09-05T23:33:40.366Z,1.10
2022-09-05T23:36:08.966Z,1.30
2022-09-05T23:38:35.714Z,1.23
2022-09-05T23:41:09.227Z,1.20
2022-09-05T23:43:35.734Z,0.80
2022-09-05T23:46:03.007Z,1.20
2022-09-05T23:48:29.595Z,1.40
2022-09-05T23:50:56.324Z,1.20
2022-09-05T23:53:23.364Z,1.27
2022-09-05T23:55:49.928Z,1.10
2022-09-05T23:58:16.791Z,1.15
